Time;durP1;ratioP1;P1;durP2;ratioP2;P2;SDS_P1;SDS_P2;PMS_P1;PMS_P2;Temp;Humidity;BMP_temperature;BMP_pressure;BME280_temperature;BME280_humidity;BME280_pressure;Samples;Min_cycle;Max_cycle;Signal;HPM_P1;HPM_P2
2023/04/23 00:01:38;;;;;;;;;;;;;;;20.07;40.91;100932.78;103778;1282;62315;-82
2023/04/23 00:04:05;;;;;;;;;;;;;;;20.07;40.83;100932.06;103754;1283;62092;-82
2023/04/23 00:06:31;;;;;;;;;;;;;;;20.07;41.03;100933.48;103668;1283;62225;-83
2023/04/23 00:08:58;;;;;;;;;;;;;;;20.07;40.89;100937.42;103848;1282;62501;-83
2023/04/23 00:11:23;;;;;;;;;;;;;;;20.06;41.02;100935.11;103784;1283;62213;-82
2023/04/23 00:13:49;;;;;;;;;;;;;;;20.07;40.96;100935.66;103747;1288;63053;-83
2023/04/23 00:16:17;;;;;;;;;;;;;;;20.06;40.94;100934.61;103846;1286;62264;-82
2023/04/23 00:18:43;;;;;;;;;;;;;;;20.06;41.01;100937.83;103808;1282;62177;-83
2023/04/23 00:21:11;;;;;;;;;;;;;;;20.06;40.92;100938.52;103764;1283;62296;-83
2023/04/23 00:23:37;;;;;;;;;;;;;;;20.06;40.99;100942.85;103738;1283;76064;-83
2023/04/23 00:26:02;;;;;;;;;;;;;;;20.06;40.98;100942.84;103805;1283;62666;-84
2023/04/23 00:28:28;;;;;;;;;;;;;;;20.06;40.99;100944.64;103796;1282;62625;-83
2023/04/23 00:30:54;;;;;;;;;;;;;;;20.06;41.01;100946.79;103817;1287;62165;-83
2023/04/23 00:33:19;;;;;;;;;;;;;;;20.06;40.90;100947.13;103801;1282;62687;-82
2023/04/23 00:35:45;;;;;;;;;;;;;;;20.06;41.04;100946.78;103821;1286;62639;-83
2023/04/23 00:38:11;;;;;;;;;;;;;;;20.06;40.89;100942.16;103785;1282;62132;-83
2023/04/23 00:40:37;;;;;;;;;;;;;;;20.06;40.89;100942.71;103720;1286;62247;-83
2023/04/23 00:43:02;;;;;;;;;;;;;;;20.05;41.00;100944.15;103774;1282;62839;-83
2023/04/23 00:45:28;;;;;;;;;;;;;;;20.05;41.02;100944.69;103762;1282;63260;-83
2023/04/23 00:47:54;;;;;;;;;;;;;;;20.05;41.04;100943.29;103737;1286;62129;-83
2023/04/23 00:50:20;;;;;;;;;;;;;;;20.05;41.00;100944.73;103826;1282;62244;-83
2023/04/23 00:52:46;;;;;;;;;;;;;;;20.04;40.92;100945.83;103766;1283;62279;-83
2023/04/23 00:55:11;;;;;;;;;;;;;;;20.04;40.98;100945.45;103771;1283;62199;-84
2023/04/23 00:57:37;;;;;;;;;;;;;;;20.04;40.95;100946.17;103797;1283;62646;-83
2023/04/23 01:00:10;;;;;;;;;;;;;;;20.04;41.07;100942.99;103724;1287;62283;-82
2023/04/23 01:02:37;;;;;;;;;;;;;;;20.04;40.94;100942.98;103867;1283;62041;-82
2023/04/23 01:05:03;;;;;;;;;;;;;;;20.04;40.91;100943.52;103930;1285;73227;-82
2023/04/23 01:07:28;;;;;;;;;;;;;;;20.04;40.99;100941.05;103738;1282;62881;-83
2023/04/23 01:09:54;;;;;;;;;;;;;;;20.03;41.07;100943.36;103845;1283;62155;-81
2023/04/23 01:12:19;;;;;;;;;;;;;;;20.04;41.07;100946.04;103757;1283;62184;-83
2023/04/23 01:14:45;;;;;;;;;;;;;;;20.03;41.13;100946.58;103807;1283;62194;-82
2023/04/23 01:17:11;;;;;;;;;;;;;;;20.03;41.07;100947.31;103867;1282;62190;-83
2023/04/23 01:19:37;;;;;;;;;;;;;;;20.03;41.11;100944.82;103777;1283;62184;-83
2023/04/23 01:22:07;;;;;;;;;;;;;;;20.03;41.07;100940.90;103838;1283;62188;-83
2023/04/23 01:24:32;;;;;;;;;;;;;;;20.03;41.14;100937.15;103811;1283;62950;-82
2023/04/23 01:26:58;;;;;;;;;;;;;;;20.03;41.12;100935.02;103863;1288;63393;-82
2023/04/23 01:29:24;;;;;;;;;;;;;;;20.03;41.09;100938.42;103755;1284;62177;-83
2023/04/23 01:31:50;;;;;;;;;;;;;;;20.02;41.19;100936.31;103902;1285;62166;-83
2023/04/23 01:34:15;;;;;;;;;;;;;;;20.02;41.04;100938.62;103878;1285;62138;-83
2023/04/23 01:36:41;;;;;;;;;;;;;;;20.02;41.05;100936.35;104069;1283;62194;-82
2023/04/23 01:39:06;;;;;;;;;;;;;;;20.02;41.07;100940.59;103843;1283;62293;-83
2023/04/23 01:41:32;;;;;;;;;;;;;;;20.02;41.13;100939.73;103902;1283;62193;-82
2023/04/23 01:43:58;;;;;;;;;;;;;;;20.03;41.06;100941.12;103896;1284;62862;-83
2023/04/23 01:46:24;;;;;;;;;;;;;;;20.03;41.04;100941.44;103614;1283;62179;-84
2023/04/23 01:48:49;;;;;;;;;;;;;;;20.02;41.25;100940.77;103689;1286;62837;-83
2023/04/23 01:51:15;;;;;;;;;;;;;;;20.03;41.07;100941.84;103749;1286;62161;-83
2023/04/23 01:53:40;;;;;;;;;;;;;;;20.02;41.06;100938.47;103763;1285;62294;-82
2023/04/23 01:56:06;;;;;;;;;;;;;;;20.02;41.27;100941.34;103698;1286;62277;-82
2023/04/23 01:58:31;;;;;;;;;;;;;;;20.02;41.13;100941.02;103758;1286;63311;-83
2023/04/23 02:00:57;;;;;;;;;;;;;;;20.01;41.12;100939.78;103588;1288;62689;-83
2023/04/23 02:03:22;;;;;;;;;;;;;;;20.01;41.10;100937.48;103735;1283;62183;-83
2023/04/23 02:05:48;;;;;;;;;;;;;;;20.01;41.08;100936.41;103736;1283;76260;-83
2023/04/23 02:08:13;;;;;;;;;;;;;;;20.01;41.20;100933.55;103735;1286;62271;-82
2023/04/23 02:10:39;;;;;;;;;;;;;;;20.00;41.15;100931.27;103761;1283;62226;-82
2023/04/23 02:13:05;;;;;;;;;;;;;;;20.00;41.08;100928.25;103680;1285;62129;-83
2023/04/23 02:15:31;;;;;;;;;;;;;;;20.00;41.27;100932.71;103752;1283;62281;-82
2023/04/23 02:17:56;;;;;;;;;;;;;;;20.00;41.10;100930.05;103774;1284;62165;-82
2023/04/23 02:20:22;;;;;;;;;;;;;;;20.00;41.23;100930.59;103747;1287;62196;-83
2023/04/23 02:22:48;;;;;;;;;;;;;;;19.99;41.20;100933.65;103743;1285;62793;-82
2023/04/23 02:25:17;;;;;;;;;;;;;;;20.00;41.12;100930.41;103741;1288;62133;-84
2023/04/23 02:27:43;;;;;;;;;;;;;;;19.99;41.20;100927.79;103624;1283;76030;-82
2023/04/23 02:30:08;;;;;;;;;;;;;;;19.99;41.14;100924.76;103711;1286;62609;-83
2023/04/23 02:32:35;;;;;;;;;;;;;;;19.99;41.17;100924.04;103754;1285;62096;-83
2023/04/23 02:35:00;;;;;;;;;;;;;;;19.98;41.04;100921.59;103707;1288;62177;-81
2023/04/23 02:37:26;;;;;;;;;;;;;;;19.98;41.15;100922.10;103743;1285;62094;-82
2023/04/23 02:39:52;;;;;;;;;;;;;;;19.98;41.31;100922.11;103760;1285;62216;-83
2023/04/23 02:42:17;;;;;;;;;;;;;;;19.98;41.13;100920.17;103798;1286;62709;-82
2023/04/23 02:44:43;;;;;;;;;;;;;;;19.98;41.13;100917.85;103760;1285;62104;-83
2023/04/23 02:47:08;;;;;;;;;;;;;;;19.98;41.25;100916.58;103745;1286;62166;-83
2023/04/23 02:49:34;;;;;;;;;;;;;;;19.97;41.15;100917.88;103773;1287;62617;-84
2023/04/23 02:51:59;;;;;;;;;;;;;;;19.97;41.14;100919.14;103725;1284;62631;-83
2023/04/23 02:54:25;;;;;;;;;;;;;;;19.97;41.17;100917.34;103738;1286;62153;-83
2023/04/23 02:56:50;;;;;;;;;;;;;;;19.97;41.28;100922.73;103797;1288;62180;-83
2023/04/23 02:59:16;;;;;;;;;;;;;;;19.97;41.09;100921.65;103646;1285;62174;-83
2023/04/23 03:01:42;;;;;;;;;;;;;;;19.96;41.25;100923.11;103729;1285;62311;-83
2023/04/23 03:04:07;;;;;;;;;;;;;;;19.97;41.27;100924.54;103630;1285;63250;-83
2023/04/23 03:06:36;;;;;;;;;;;;;;;19.96;41.09;100928.13;103605;1288;62235;-83
2023/04/23 03:09:01;;;;;;;;;;;;;;;19.96;41.09;100926.70;103711;1285;62149;-82
2023/04/23 03:11:27;;;;;;;;;;;;;;;19.96;41.16;100925.29;103698;1285;62609;-82
2023/04/23 03:13:52;;;;;;;;;;;;;;;19.96;41.13;100927.62;103736;1286;62184;-83
2023/04/23 03:16:18;;;;;;;;;;;;;;;19.96;41.17;100928.52;103738;1285;62284;-84
2023/04/23 03:18:44;;;;;;;;;;;;;;;19.96;41.24;100934.91;103717;1286;62159;-82
2023/04/23 03:21:10;;;;;;;;;;;;;;;19.96;40.99;100930.11;103768;1283;62672;-83
2023/04/23 03:23:35;;;;;;;;;;;;;;;19.96;41.17;100933.18;103914;1283;62194;-83
2023/04/23 03:26:01;;;;;;;;;;;;;;;19.95;41.21;100936.22;103737;1288;62280;-83
2023/04/23 03:28:26;;;;;;;;;;;;;;;19.95;41.04;100932.49;103803;1285;62182;-83
2023/04/23 03:30:52;;;;;;;;;;;;;;;19.95;41.16;100937.66;103734;1288;62149;-84
2023/04/23 03:33:17;;;;;;;;;;;;;;;19.95;41.03;100940.56;103751;1286;62648;-83
2023/04/23 03:35:43;;;;;;;;;;;;;;;19.95;41.29;100939.69;103657;1285;62531;-83
2023/04/23 03:38:08;;;;;;;;;;;;;;;19.95;41.14;100939.27;103728;1286;62186;-83
2023/04/23 03:40:34;;;;;;;;;;;;;;;19.95;41.10;100940.37;103780;1286;62222;-82
2023/04/23 03:43:00;;;;;;;;;;;;;;;19.95;41.18;100939.33;103745;1286;62187;-82
2023/04/23 03:45:26;;;;;;;;;;;;;;;19.95;40.98;100938.44;103771;1283;63366;-84
2023/04/23 03:47:51;;;;;;;;;;;;;;;19.95;41.11;100936.83;103676;1285;62184;-84
2023/04/23 03:50:17;;;;;;;;;;;;;;;19.95;40.95;100939.12;103643;1288;62213;-83
2023/04/23 03:52:43;;;;;;;;;;;;;;;19.95;41.09;100945.74;103773;1285;63204;-82
2023/04/23 03:55:09;;;;;;;;;;;;;;;19.94;40.94;100944.52;103745;1285;62635;-83
2023/04/23 03:57:38;;;;;;;;;;;;;;;19.95;41.11;100948.79;103754;1286;62162;-83
2023/04/23 04:00:07;;;;;;;;;;;;;;;19.94;40.97;100948.99;103842;1285;76099;-82
2023/04/23 04:02:33;;;;;;;;;;;;;;;19.94;41.08;100951.13;103789;1285;62106;-83
2023/04/23 04:04:58;;;;;;;;;;;;;;;19.95;41.11;100956.10;103850;1285;62210;-82
2023/04/23 04:07:24;;;;;;;;;;;;;;;19.95;41.08;100958.08;103769;1288;62140;-83
2023/04/23 04:09:50;;;;;;;;;;;;;;;19.95;41.10;100961.65;103705;1286;62184;-83
2023/04/23 04:12:15;;;;;;;;;;;;;;;19.95;41.06;100965.04;103751;1286;62636;-82
2023/04/23 04:14:41;;;;;;;;;;;;;;;19.95;40.98;100964.83;103777;1286;62232;-82
2023/04/23 04:17:07;;;;;;;;;;;;;;;19.95;40.93;100959.48;103640;1287;62108;-82
2023/04/23 04:19:33;;;;;;;;;;;;;;;19.95;41.12;100963.75;103724;1285;62887;-83
2023/04/23 04:21:59;;;;;;;;;;;;;;;19.96;41.22;100966.41;103725;1286;63403;-83
2023/04/23 04:24:24;;;;;;;;;;;;;;;19.95;41.06;100968.77;103800;1286;62623;-83
2023/04/23 04:26:51;;;;;;;;;;;;;;;19.95;41.05;100969.67;103743;1283;62406;-81
2023/04/23 04:29:20;;;;;;;;;;;;;;;19.95;41.14;100969.33;103752;1285;62255;-83
2023/04/23 04:31:46;;;;;;;;;;;;;;;19.95;41.03;100968.80;103700;1285;62509;-83
2023/04/23 04:34:13;;;;;;;;;;;;;;;19.95;41.05;100973.77;103715;1285;62136;-82
2023/04/23 04:36:41;;;;;;;;;;;;;;;19.95;40.96;100970.55;103734;1286;62270;-84
2023/04/23 04:39:06;;;;;;;;;;;;;;;19.95;41.05;100973.24;103714;1286;72354;-83
2023/04/23 04:41:32;;;;;;;;;;;;;;;19.95;40.97;100976.27;103755;1283;62836;-82
2023/04/23 04:43:57;;;;;;;;;;;;;;;19.95;41.06;100980.02;103757;1285;62182;-82
2023/04/23 04:46:24;;;;;;;;;;;;;;;19.95;41.00;100978.44;103789;1285;62191;-83
2023/04/23 04:48:50;;;;;;;;;;;;;;;19.95;40.97;100977.88;103778;1288;62608;-82
2023/04/23 04:51:15;;;;;;;;;;;;;;;19.96;41.02;100982.12;103707;1285;62193;-83
2023/04/23 04:53:41;;;;;;;;;;;;;;;19.95;41.07;100982.53;103776;1288;62190;-83
2023/04/23 04:56:07;;;;;;;;;;;;;;;19.96;40.96;100984.42;103738;1285;62130;-83
2023/04/23 04:58:32;;;;;;;;;;;;;;;19.96;41.04;100984.63;103723;1285;62213;-84
2023/04/23 05:01:00;;;;;;;;;;;;;;;19.96;40.99;100983.90;103763;1285;62076;-83
2023/04/23 05:03:25;;;;;;;;;;;;;;;19.96;41.02;100987.83;103799;1283;62855;-83
2023/04/23 05:05:51;;;;;;;;;;;;;;;19.96;41.08;100986.75;103767;1283;62861;-84
2023/04/23 05:08:17;;;;;;;;;;;;;;;19.96;41.13;100989.79;103750;1288;62126;-83
2023/04/23 05:10:43;;;;;;;;;;;;;;;19.96;41.03;100994.21;103779;1283;62165;-82
2023/04/23 05:13:10;;;;;;;;;;;;;;;19.97;41.04;100997.58;103823;1284;62188;-82
2023/04/23 05:15:35;;;;;;;;;;;;;;;19.97;40.93;101003.98;103785;1283;76123;-82
2023/04/23 05:18:05;;;;;;;;;;;;;;;19.98;40.99;100999.48;103689;1285;62598;-83
2023/04/23 05:20:30;;;;;;;;;;;;;;;19.98;40.99;100999.82;103546;1291;62248;-82
2023/04/23 05:22:58;;;;;;;;;;;;;;;19.99;40.90;101002.82;103753;1283;63360;-82
2023/04/23 05:25:24;;;;;;;;;;;;;;;19.99;41.07;101003.52;103588;1288;75065;-82
2023/04/23 05:27:49;;;;;;;;;;;;;;;20.00;41.12;101007.40;103721;1285;63382;-83
2023/04/23 05:30:15;;;;;;;;;;;;;;;20.01;41.02;101009.85;103642;1285;63256;-83
2023/04/23 05:32:40;;;;;;;;;;;;;;;20.02;41.20;101011.58;103604;1288;62195;-83
2023/04/23 05:35:06;;;;;;;;;;;;;;;20.03;41.20;101008.28;103741;1285;62133;-84
2023/04/23 05:37:32;;;;;;;;;;;;;;;20.04;41.08;101012.33;103724;1287;75445;-83
2023/04/23 05:39:57;;;;;;;;;;;;;;;20.05;41.21;101011.37;103818;1284;62183;-83
2023/04/23 05:42:23;;;;;;;;;;;;;;;20.06;41.24;101009.86;103805;1288;62156;-82
2023/04/23 05:44:48;;;;;;;;;;;;;;;20.06;41.23;101012.87;103730;1287;62354;-83
2023/04/23 05:47:14;;;;;;;;;;;;;;;20.07;41.19;101013.35;103789;1283;63478;-83
2023/04/23 05:49:39;;;;;;;;;;;;;;;20.08;41.08;101010.78;103745;1288;75318;-83
2023/04/23 05:52:05;;;;;;;;;;;;;;;20.09;41.36;101012.86;103744;1285;62188;-83
2023/04/23 05:54:30;;;;;;;;;;;;;;;20.10;41.17;101011.36;103720;1288;62657;-83
2023/04/23 05:56:56;;;;;;;;;;;;;;;20.12;41.21;101013.80;103676;1284;63470;-82
2023/04/23 05:59:21;;;;;;;;;;;;;;;20.12;41.20;101010.75;103637;1285;62195;-83
2023/04/23 06:01:48;;;;;;;;;;;;;;;20.13;41.24;101009.77;103775;1286;76112;-83
2023/04/23 06:04:13;;;;;;;;;;;;;;;20.13;41.33;101011.36;103754;1285;62200;-83
2023/04/23 06:06:39;;;;;;;;;;;;;;;20.15;41.29;101012.56;103650;1284;62133;-83
2023/04/23 06:09:05;;;;;;;;;;;;;;;20.15;41.39;101012.13;103724;1285;62127;-83
2023/04/23 06:11:31;;;;;;;;;;;;;;;20.16;41.44;101015.33;103771;1288;62124;-84
2023/04/23 06:13:57;;;;;;;;;;;;;;;20.16;41.41;101013.68;103777;1288;62235;-83
2023/04/23 06:16:23;;;;;;;;;;;;;;;20.17;41.43;101014.67;103800;1284;62386;-83
2023/04/23 06:18:49;;;;;;;;;;;;;;;20.18;41.42;101019.09;103788;1284;62213;-83
2023/04/23 06:21:15;;;;;;;;;;;;;;;20.19;41.45;101020.48;103706;1288;73550;-82
2023/04/23 06:23:40;;;;;;;;;;;;;;;20.20;41.47;101020.43;103669;1288;62188;-83
2023/04/23 06:26:06;;;;;;;;;;;;;;;20.20;41.40;101019.70;103698;1285;62603;-83
2023/04/23 06:28:31;;;;;;;;;;;;;;;20.21;41.33;101017.16;103724;1286;62239;-81
2023/04/23 06:30:57;;;;;;;;;;;;;;;20.21;41.45;101014.09;103770;1286;62897;-83
2023/04/23 06:33:22;;;;;;;;;;;;;;;20.22;41.49;101014.23;103757;1288;73433;-84
2023/04/23 06:35:48;;;;;;;;;;;;;;;20.23;41.60;101013.42;103743;1285;63192;-81
2023/04/23 06:38:13;;;;;;;;;;;;;;;20.24;41.51;101014.77;103739;1288;62894;-84
2023/04/23 06:40:39;;;;;;;;;;;;;;;20.24;41.55;101012.81;103758;1286;62332;-83
2023/04/23 06:43:06;;;;;;;;;;;;;;;20.25;41.55;101013.85;103763;1286;62231;-83
2023/04/23 06:45:34;;;;;;;;;;;;;;;20.26;41.58;101018.96;103762;1286;71672;-83
2023/04/23 06:47:59;;;;;;;;;;;;;;;20.26;41.62;101017.14;103694;1283;76303;-82
2023/04/23 06:50:25;;;;;;;;;;;;;;;20.27;41.69;101019.78;103800;1288;62199;-83
2023/04/23 06:52:52;;;;;;;;;;;;;;;20.27;41.61;101021.38;103749;1285;62248;-84
2023/04/23 06:55:17;;;;;;;;;;;;;;;20.28;41.60;101018.48;103790;1285;62758;-83
2023/04/23 06:57:43;;;;;;;;;;;;;;;20.29;41.49;101021.64;103758;1284;62162;-82
2023/04/23 07:00:12;;;;;;;;;;;;;;;20.30;41.68;101021.60;103777;1288;62211;-83
2023/04/23 07:02:37;;;;;;;;;;;;;;;20.30;41.66;101021.92;103794;1285;62907;-83
2023/04/23 07:05:03;;;;;;;;;;;;;;;20.30;41.54;101021.39;102661;1288;1451494;-83
2023/04/23 07:07:28;;;;;;;;;;;;;;;20.31;41.44;101022.75;103690;1288;62273;-83
2023/04/23 07:09:54;;;;;;;;;;;;;;;20.31;41.55;101019.70;103760;1285;62242;-84
2023/04/23 07:12:20;;;;;;;;;;;;;;;20.31;41.45;101017.02;103726;1285;62148;-82
2023/04/23 07:14:52;;;;;;;;;;;;;;;20.32;41.50;101017.16;103788;1285;62600;-84
2023/04/23 07:17:17;;;;;;;;;;;;;;;20.32;41.59;101017.34;103738;1286;72583;-83
2023/04/23 07:19:43;;;;;;;;;;;;;;;20.32;41.54;101016.42;103727;1286;62254;-83
2023/04/23 07:22:09;;;;;;;;;;;;;;;20.33;41.40;101019.79;103670;1285;62605;-83
2023/04/23 07:24:34;;;;;;;;;;;;;;;20.32;41.46;101018.03;103752;1285;62108;-83
2023/04/23 07:27:00;;;;;;;;;;;;;;;20.32;41.61;101019.63;103688;1285;62244;-83
2023/04/23 07:29:28;;;;;;;;;;;;;;;20.33;41.46;101022.41;103734;1288;73503;-83
2023/04/23 07:31:55;;;;;;;;;;;;;;;20.34;41.40;101020.61;103766;1285;62204;-83
2023/04/23 07:34:20;;;;;;;;;;;;;;;20.33;41.54;101019.19;103756;1288;62229;-83
2023/04/23 07:36:46;;;;;;;;;;;;;;;20.34;41.62;101021.30;103749;1286;62181;-81
2023/04/23 07:39:12;;;;;;;;;;;;;;;20.34;41.46;101023.46;103787;1288;62108;-83
2023/04/23 07:41:37;;;;;;;;;;;;;;;20.35;41.47;101023.77;103814;1285;62261;-83
2023/04/23 07:44:03;;;;;;;;;;;;;;;20.34;41.57;101021.98;103747;1288;75547;-83
2023/04/23 07:46:28;;;;;;;;;;;;;;;20.35;41.57;101025.55;103701;1285;62239;-82
2023/04/23 07:48:54;;;;;;;;;;;;;;;20.35;41.44;101023.56;103741;1286;62247;-83
2023/04/23 07:51:21;;;;;;;;;;;;;;;20.35;41.38;101022.66;103635;1285;62615;-83
2023/04/23 07:53:49;;;;;;;;;;;;;;;20.35;41.30;101021.97;103695;1285;63434;-83
2023/04/23 07:56:16;;;;;;;;;;;;;;;20.35;41.41;101021.95;103681;1285;62313;-83
2023/04/23 07:58:41;;;;;;;;;;;;;;;20.35;41.34;101022.31;103808;1286;62277;-83
2023/04/23 08:01:07;;;;;;;;;;;;;;;20.35;41.49;101020.34;103823;1288;62631;-83
2023/04/23 08:03:32;;;;;;;;;;;;;;;20.35;41.32;101021.77;103578;1288;62188;-83
2023/04/23 08:05:58;;;;;;;;;;;;;;;20.35;41.31;101025.52;103800;1285;62311;-83
2023/04/23 08:08:23;;;;;;;;;;;;;;;20.35;41.31;101026.39;103807;1284;62007;-82
2023/04/23 08:10:49;;;;;;;;;;;;;;;20.35;41.35;101023.73;103765;1286;62181;-83
2023/04/23 08:13:14;;;;;;;;;;;;;;;20.35;41.45;101024.77;103761;1286;62254;-84
2023/04/23 08:15:40;;;;;;;;;;;;;;;20.36;41.34;101024.23;103753;1286;62274;-83
2023/04/23 08:18:06;;;;;;;;;;;;;;;20.36;41.39;101020.66;103745;1288;62194;-81
2023/04/23 08:20:33;;;;;;;;;;;;;;;20.35;41.32;101021.95;103773;1284;62245;-82
2023/04/23 08:22:58;;;;;;;;;;;;;;;20.36;41.46;101018.15;103826;1285;62287;-82
2023/04/23 08:25:24;;;;;;;;;;;;;;;20.36;41.26;101017.79;103747;1288;63364;-83
2023/04/23 08:27:49;;;;;;;;;;;;;;;20.36;41.30;101017.06;103739;1288;63241;-83
2023/04/23 08:30:15;;;;;;;;;;;;;;;20.35;41.29;101015.88;103717;1284;62201;-83
2023/04/23 08:32:40;;;;;;;;;;;;;;;20.36;41.41;101016.71;103760;1288;62184;-83
2023/04/23 08:35:07;;;;;;;;;;;;;;;20.35;41.31;101017.10;103768;1288;62111;-83
2023/04/23 08:37:32;;;;;;;;;;;;;;;20.35;41.30;101013.38;103704;1288;62149;-83
2023/04/23 08:39:59;;;;;;;;;;;;;;;20.35;41.24;101013.73;103707;1285;62184;-83
2023/04/23 08:42:36;;;;;;;;;;;;;;;20.34;41.42;101011.80;103770;1286;62218;-83
2023/04/23 08:45:02;;;;;;;;;;;;;;;20.34;41.18;101010.89;103740;1283;62070;-83
2023/04/23 08:47:28;;;;;;;;;;;;;;;20.35;41.17;101012.32;103742;1288;72401;-83
2023/04/23 08:49:54;;;;;;;;;;;;;;;20.34;41.36;101009.66;103741;1288;62149;-79
2023/04/23 08:52:24;;;;;;;;;;;;;;;20.35;41.23;101008.91;103753;1283;62238;-84
2023/04/23 08:54:56;;;;;;;;;;;;;;;20.35;41.23;101005.36;103793;1285;63394;-83
2023/04/23 08:57:22;;;;;;;;;;;;;;;20.35;41.25;101004.11;103591;1283;72346;-84
2023/04/23 08:59:47;;;;;;;;;;;;;;;20.34;41.25;101004.48;103757;1287;62273;-82
2023/04/23 09:02:14;;;;;;;;;;;;;;;20.35;41.25;101002.86;103646;1288;62860;-83
2023/04/23 09:04:40;;;;;;;;;;;;;;;20.34;41.13;101000.73;103785;1288;62105;-82
2023/04/23 09:07:22;;;;;;;;;;;;;;;;;;;;;
2023/04/23 09:09:47;;;;;;;;;;;;;;;20.34;41.20;101005.20;103731;1285;75213;-83
2023/04/23 09:12:13;;;;;;;;;;;;;;;20.34;41.13;101003.77;103757;1286;62807;-83
2023/04/23 09:14:39;;;;;;;;;;;;;;;20.34;41.27;101001.81;103775;1285;63458;-83
2023/04/23 09:17:04;;;;;;;;;;;;;;;20.35;41.31;101001.25;103738;1285;62875;-84
2023/04/23 09:19:30;;;;;;;;;;;;;;;20.34;41.27;100997.69;103761;1286;62746;-83
2023/04/23 09:21:56;;;;;;;;;;;;;;;20.34;41.15;100996.61;103721;1285;76115;-83
2023/04/23 09:24:22;;;;;;;;;;;;;;;20.35;41.23;100990.68;103719;1287;62279;-82
2023/04/23 09:26:48;;;;;;;;;;;;;;;20.34;41.13;100986.09;103751;1288;62257;-82
2023/04/23 09:29:18;;;;;;;;;;;;;;;20.35;41.20;100989.63;103682;1285;62197;-83
2023/04/23 09:31:48;;;;;;;;;;;;;;;20.34;41.23;100984.99;103745;1284;76148;-82
2023/04/23 09:34:17;;;;;;;;;;;;;;;20.35;41.13;100980.15;103782;1286;62104;-83
2023/04/23 09:36:44;;;;;;;;;;;;;;;20.34;41.04;100980.02;103592;1289;62154;-82
2023/04/23 09:39:13;;;;;;;;;;;;;;;20.34;41.20;100979.33;103765;1286;73664;-83
2023/04/23 09:41:38;;;;;;;;;;;;;;;20.33;41.20;100979.34;103643;1285;76213;-83
2023/04/23 09:44:04;;;;;;;;;;;;;;;20.33;41.09;100977.23;103736;1288;63513;-84
2023/04/23 09:46:33;;;;;;;;;;;;;;;20.33;41.26;100978.11;103629;1285;62181;-83
2023/04/23 09:49:00;;;;;;;;;;;;;;;20.32;41.19;100974.95;103808;1285;71840;-84
2023/04/23 09:51:27;;;;;;;;;;;;;;;20.32;41.17;100970.48;103738;1288;75299;-82
2023/04/23 09:53:52;;;;;;;;;;;;;;;20.32;41.12;100965.85;103720;1288;62140;-83
2023/04/23 09:56:19;;;;;;;;;;;;;;;20.32;41.12;100959.43;103628;1286;62191;-83
2023/04/23 09:58:45;;;;;;;;;;;;;;;20.32;41.26;100958.36;103884;1288;62271;-82
2023/04/23 10:01:14;;;;;;;;;;;;;;;20.31;41.17;100951.60;103821;1288;62159;-82
2023/04/23 10:03:42;;;;;;;;;;;;;;;20.31;41.05;100954.10;103989;1282;62143;-83
2023/04/23 10:06:12;;;;;;;;;;;;;;;20.31;41.19;100950.89;103874;1286;62193;-82
2023/04/23 10:08:38;;;;;;;;;;;;;;;20.30;41.09;100953.27;104964;1283;73306;-83
2023/04/23 10:11:04;;;;;;;;;;;;;;;20.31;41.11;100951.77;103842;1288;75147;-82
2023/04/23 10:13:30;;;;;;;;;;;;;;;20.31;41.17;100944.27;103793;1283;62182;-83
2023/04/23 10:15:55;;;;;;;;;;;;;;;20.32;41.23;100940.67;103958;1282;62178;-82
2023/04/23 10:18:21;;;;;;;;;;;;;;;20.31;41.06;100937.28;103771;1283;62755;-83
2023/04/23 10:20:48;;;;;;;;;;;;;;;20.31;41.13;100933.38;104185;1288;62171;-82
2023/04/23 10:23:13;;;;;;;;;;;;;;;20.31;41.12;100931.92;104389;1283;62250;-82
2023/04/23 10:25:39;;;;;;;;;;;;;;;20.31;41.14;100931.02;103981;1285;62197;-82
2023/04/23 10:28:06;;;;;;;;;;;;;;;20.31;41.17;100928.73;103901;1288;62073;-82
2023/04/23 10:30:32;;;;;;;;;;;;;;;20.31;41.18;100930.73;103920;1288;72530;-82
2023/04/23 10:32:58;;;;;;;;;;;;;;;20.31;41.09;100926.60;103804;1282;62956;-83
2023/04/23 10:35:24;;;;;;;;;;;;;;;20.31;41.02;100926.95;103863;1286;62193;-83
2023/04/23 10:37:49;;;;;;;;;;;;;;;20.30;41.18;100922.00;103870;1283;62277;-83
2023/04/23 10:40:18;;;;;;;;;;;;;;;20.30;41.01;100916.45;103786;1288;62648;-83
2023/04/23 10:42:43;;;;;;;;;;;;;;;20.30;41.14;100910.73;103598;1282;62201;-82
2023/04/23 10:45:13;;;;;;;;;;;;;;;20.30;41.10;100910.39;103686;1283;62196;-83
2023/04/23 10:47:41;;;;;;;;;;;;;;;20.30;41.05;100907.91;103860;1288;61982;-82
2023/04/23 10:50:21;;;;;;;;;;;;;;;20.30;40.97;100907.91;103756;1288;73271;-83
2023/04/23 10:52:50;;;;;;;;;;;;;;;20.30;41.07;100902.56;103765;1283;76252;-83
2023/04/23 10:55:17;;;;;;;;;;;;;;;20.29;41.00;100899.73;103759;1283;62098;-84
2023/04/23 10:57:59;;;;;;;;;;;;;;;20.29;41.10;100900.10;103809;1288;62107;-83
2023/04/23 11:00:25;;;;;;;;;;;;;;;20.28;41.05;100896.92;103771;1288;73295;-84
2023/04/23 11:02:52;;;;;;;;;;;;;;;20.29;40.94;100891.37;103795;1288;76312;-83
2023/04/23 11:05:41;;;;;;;;;;;;;;;20.28;40.89;100893.35;103865;1288;62656;-83
2023/04/23 11:08:06;;;;;;;;;;;;;;;20.29;40.96;100889.59;103030;1291;62258;-84
2023/04/23 11:10:32;;;;;;;;;;;;;;;20.28;40.98;100888.91;102992;1292;62445;-83
2023/04/23 11:13:15;;;;;;;;;;;;;;;20.28;40.88;100883.02;102989;1295;62207;-83
2023/04/23 11:15:41;;;;;;;;;;;;;;;20.28;41.04;100882.30;103045;1290;62680;-82
2023/04/23 11:18:06;;;;;;;;;;;;;;;20.28;41.12;100883.19;102971;1292;63411;-83
2023/04/23 11:20:32;;;;;;;;;;;;;;;20.28;40.93;100879.09;103057;1294;63576;-83
2023/04/23 11:22:57;;;;;;;;;;;;;;;20.28;41.04;100878.02;103059;1295;62357;-82
2023/04/23 11:25:24;;;;;;;;;;;;;;;20.27;41.04;100881.27;103035;1295;62142;-83
2023/04/23 11:27:50;;;;;;;;;;;;;;;20.27;41.00;100875.92;103050;1297;62110;-83
2023/04/23 11:30:16;;;;;;;;;;;;;;;20.27;41.04;100870.92;103055;1296;62429;-83
2023/04/23 11:32:47;;;;;;;;;;;;;;;20.27;40.89;100870.73;102997;1291;62258;-82
2023/04/23 11:35:18;;;;;;;;;;;;;;;20.27;41.02;100868.23;102999;1292;75081;-83
2023/04/23 11:37:44;;;;;;;;;;;;;;;20.27;40.98;100861.64;102963;1293;63263;-83
2023/04/23 11:40:13;;;;;;;;;;;;;;;20.26;40.95;100860.20;102987;1294;62393;-82
2023/04/23 11:42:48;;;;;;;;;;;;;;;20.27;40.88;100860.17;102907;1297;73247;-82
2023/04/23 11:45:17;;;;;;;;;;;;;;;20.26;40.85;100858.41;103113;1285;75135;-83
2023/04/23 11:47:43;;;;;;;;;;;;;;;20.26;41.01;100855.57;103805;1285;62184;-82
2023/04/23 11:50:09;;;;;;;;;;;;;;;20.27;40.84;100856.44;103571;1288;63315;-84
2023/04/23 11:52:34;;;;;;;;;;;;;;;20.26;40.89;100857.17;103563;1288;62260;-84
2023/04/23 11:55:06;;;;;;;;;;;;;;;20.26;40.78;100857.70;103577;1288;62178;-82
2023/04/23 11:57:36;;;;;;;;;;;;;;;20.26;41.01;100853.05;103801;1285;63372;-83
2023/04/23 12:00:11;;;;;;;;;;;;;;;20.26;40.80;100850.56;103732;1288;62062;-82
2023/04/23 12:02:36;;;;;;;;;;;;;;;20.27;40.96;100849.47;103783;1283;73338;-82
2023/04/23 12:05:04;;;;;;;;;;;;;;;20.27;40.84;100852.48;103889;1288;62263;-83
2023/04/23 12:07:31;;;;;;;;;;;;;;;20.28;40.79;100851.22;103863;1283;62159;-83
2023/04/23 12:09:59;;;;;;;;;;;;;;;20.28;40.85;100841.92;103855;1288;62103;-82
2023/04/23 12:12:31;;;;;;;;;;;;;;;20.28;40.88;100844.39;103995;1283;73386;-83
2023/04/23 12:15:04;;;;;;;;;;;;;;;20.29;40.92;100841.33;104095;1285;75446;-82
2023/04/23 12:17:30;;;;;;;;;;;;;;;20.29;40.93;100836.83;104545;1287;62081;-82
2023/04/23 12:19:55;;;;;;;;;;;;;;;20.29;40.80;100831.82;103949;1287;62883;-83
2023/04/23 12:22:25;;;;;;;;;;;;;;;20.30;40.88;100827.65;103940;1288;62440;-83
2023/04/23 12:24:52;;;;;;;;;;;;;;;20.30;40.99;100824.22;104201;1288;75112;-82